Time;durP1;ratioP1;P1;durP2;ratioP2;P2;SDS_P1;SDS_P2;PMS_P1;PMS_P2;Temp;Humidity;BMP_temperature;BMP_pressure;BME280_temperature;BME280_humidity;BME280_pressure;Samples;Min_cycle;Max_cycle;Signal;HPM_P1;HPM_P2
2024/01/23 00:01:56;;;;;;;6.80;6.50;;;7.70;1.00;;;;;;5054340;28;20483;-75
2024/01/23 00:04:24;;;;;;;7.07;6.60;;;7.70;1.00;;;;;;5052587;28;20545;-73
2024/01/23 00:06:52;;;;;;;7.63;7.20;;;7.70;1.00;;;;;;5055026;28;20823;-75
2024/01/23 00:09:21;;;;;;;7.20;7.00;;;7.70;1.00;;;;;;5052639;28;20899;-76
2024/01/23 00:11:49;;;;;;;6.60;6.40;;;7.70;1.00;;;;;;5053254;28;20465;-79
2024/01/23 00:14:17;;;;;;;7.00;6.70;;;7.70;1.00;;;;;;5054642;28;20455;-75
2024/01/23 00:16:48;;;;;;;6.93;6.63;;;7.70;1.00;;;;;;5048195;28;20550;-76
2024/01/23 00:19:17;;;;;;;6.60;6.30;;;7.60;1.00;;;;;;5054537;28;20505;-76
2024/01/23 00:21:46;;;;;;;7.07;6.20;;;7.70;1.00;;;;;;5055032;28;20483;-76
2024/01/23 00:24:14;;;;;;;7.07;6.67;;;7.60;1.00;;;;;;5048984;28;20625;-76
2024/01/23 00:26:42;;;;;;;6.47;6.27;;;7.60;1.00;;;;;;5053741;28;20474;-76
2024/01/23 00:29:10;;;;;;;6.50;6.37;;;7.60;99.90;;;;;;5050398;28;20476;-76
2024/01/23 00:31:39;;;;;;;6.30;6.00;;;7.60;99.90;;;;;;5050269;28;20546;-75
2024/01/23 00:34:07;;;;;;;6.03;5.83;;;7.60;99.90;;;;;;5053367;28;20460;-74
2024/01/23 00:36:36;;;;;;;6.00;5.80;;;7.60;99.90;;;;;;5057120;28;20588;-80
2024/01/23 00:39:05;;;;;;;6.73;6.43;;;7.60;57.30;;;;;;5055750;28;20518;-77
2024/01/23 00:41:34;;;;;;;6.87;6.40;;;7.60;99.90;;;;;;5056412;28;20464;-77
2024/01/23 00:44:02;;;;;;;6.07;5.87;;;7.60;18.30;;;;;;5047113;28;20478;-77
2024/01/23 00:46:30;;;;;;;6.40;6.20;;;7.60;1.00;;;;;;5043617;28;20586;-78
2024/01/23 00:48:59;;;;;;;6.53;6.13;;;7.60;19.80;;;;;;5049842;28;20497;-76
2024/01/23 00:51:29;;;;;;;6.17;5.97;;;7.60;2.70;;;;;;5055686;28;20452;-76
2024/01/23 00:54:00;;;;;;;6.00;5.70;;;7.60;92.70;;;;;;5053143;28;20459;-75
2024/01/23 00:56:29;;;;;;;6.40;5.90;;;7.60;30.80;;;;;;5054812;28;20456;-78
2024/01/23 00:58:57;;;;;;;6.67;6.27;;;7.60;14.30;;;;;;5053950;28;20638;-78
2024/01/23 01:01:25;;;;;;;6.27;5.90;;;7.50;1.00;;;;;;5044551;28;20678;-80
2024/01/23 01:03:55;;;;;;;6.40;6.10;;;7.60;1.00;;;;;;5058923;28;20448;-76
2024/01/23 01:06:23;;;;;;;6.83;6.20;;;7.50;10.70;;;;;;5053958;28;20467;-82
2024/01/23 01:08:52;;;;;;;6.20;5.90;;;7.50;1.00;;;;;;5049912;28;21190;-78
2024/01/23 01:11:21;;;;;;;5.70;5.30;;;7.50;74.90;;;;;;5058549;28;20545;-75
2024/01/23 01:13:50;;;;;;;5.80;5.60;;;7.50;57.30;;;;;;5051461;28;20675;-78
2024/01/23 01:16:18;;;;;;;6.30;6.00;;;7.50;99.90;;;;;;5053808;28;20518;-78
2024/01/23 01:18:46;;;;;;;5.77;5.23;;;7.50;99.90;;;;;;5054897;28;20483;-74
2024/01/23 01:21:14;;;;;;;6.00;5.70;;;7.50;99.90;;;;;;5057918;28;20454;-77
2024/01/23 01:23:43;;;;;;;5.50;5.30;;;7.50;99.90;;;;;;5055867;28;20466;-77
2024/01/23 01:26:11;;;;;;;5.93;5.50;;;7.40;99.90;;;;;;5052809;28;20475;-76
2024/01/23 01:28:41;;;;;;;5.90;5.60;;;7.40;1.00;;;;;;5049447;28;20480;-77
2024/01/23 01:31:09;;;;;;;5.80;5.60;;;7.40;1.00;;;;;;5051230;28;21015;-78
2024/01/23 01:33:36;;;;;;;5.40;5.20;;;7.40;84.30;;;;;;5050722;28;20484;-77
2024/01/23 01:36:05;;;;;;;6.07;5.67;;;7.40;1.00;;;;;;5054563;28;20444;-76
2024/01/23 01:38:37;;;;;;;6.57;5.90;;;7.40;76.50;;;;;;5051063;28;20589;-76
2024/01/23 01:41:15;;;;;;;6.97;6.23;;;7.40;99.90;;;;;;5059490;28;20490;-76
2024/01/23 01:43:44;;;;;;;5.87;5.53;;;7.40;1.00;;;;;;5051932;28;20510;-75
2024/01/23 01:46:18;;;;;;;8.53;5.93;;;7.40;56.90;;;;;;5050574;28;20564;-75
2024/01/23 01:48:47;;;;;;;6.07;5.77;;;7.40;10.90;;;;;;5051899;28;20481;-78
2024/01/23 01:51:18;;;;;;;6.00;5.60;;;7.40;1.00;;;;;;5055601;28;20452;-77
2024/01/23 01:53:46;;;;;;;5.93;5.73;;;7.30;57.20;;;;;;5057096;28;20482;-77
2024/01/23 01:56:15;;;;;;;6.70;5.60;;;7.30;99.90;;;;;;5053055;28;20448;-75
2024/01/23 01:58:46;;;;;;;5.73;5.30;;;7.20;1.00;;;;;;5055650;28;20485;-80
2024/01/23 02:01:14;;;;;;;5.70;5.40;;;7.30;99.90;;;;;;5048017;28;20459;-79
2024/01/23 02:03:42;;;;;;;5.20;5.00;;;7.30;99.90;;;;;;5054634;28;20456;-78
2024/01/23 02:06:12;;;;;;;5.80;5.30;;;7.30;2.10;;;;;;5049976;28;20506;-77
2024/01/23 02:08:41;;;;;;;6.30;5.87;;;7.30;1.00;;;;;;5040189;28;21177;-82
2024/01/23 02:11:09;;;;;;;6.17;5.63;;;7.30;9.90;;;;;;5049551;28;20473;-76
2024/01/23 02:13:37;;;;;;;6.23;5.80;;;7.30;1.00;;;;;;5056378;28;20527;-78
2024/01/23 02:16:08;;;;;;;5.97;5.53;;;7.40;1.00;;;;;;5052742;28;20448;-76
2024/01/23 02:18:36;;;;;;;6.03;5.63;;;7.40;1.00;;;;;;5056488;28;20495;-77
2024/01/23 02:21:05;;;;;;;5.37;5.07;;;7.30;99.90;;;;;;5053833;28;20551;-76
2024/01/23 02:23:35;;;;;;;5.37;4.93;;;7.30;99.90;;;;;;5057184;28;20494;-82
2024/01/23 02:26:03;;;;;;;5.60;5.20;;;7.40;99.90;;;;;;5043282;28;21320;-78
2024/01/23 02:28:31;;;;;;;5.90;5.50;;;7.30;93.90;;;;;;5051619;28;20475;-79
2024/01/23 02:31:00;;;;;;;5.43;5.03;;;7.30;6.80;;;;;;5051333;28;20479;-79
2024/01/23 02:33:28;;;;;;;6.03;5.57;;;7.30;1.00;;;;;;5056726;28;20583;-79
2024/01/23 02:35:56;;;;;;;5.43;5.20;;;7.30;1.00;;;;;;5055037;28;20543;-79
2024/01/23 02:38:24;;;;;;;6.20;5.60;;;7.30;1.00;;;;;;5053105;28;20511;-78
2024/01/23 02:40:56;;;;;;;5.43;5.23;;;7.30;1.00;;;;;;5050009;28;20460;-78
2024/01/23 02:43:24;;;;;;;5.80;5.50;;;7.30;1.00;;;;;;5050918;28;20455;-80
2024/01/23 02:45:53;;;;;;;6.20;5.80;;;7.30;1.00;;;;;;5050173;28;21077;-78
2024/01/23 02:48:21;;;;;;;5.60;5.10;;;7.30;1.00;;;;;;5049450;28;20487;-76
2024/01/23 02:50:50;;;;;;;6.10;5.80;;;7.40;1.00;;;;;;5053345;28;20455;-80
2024/01/23 02:53:18;;;;;;;6.70;5.97;;;7.40;1.00;;;;;;5056127;28;20455;-78
2024/01/23 02:55:46;;;;;;;8.60;6.20;;;7.40;99.90;;;;;;5052351;28;20478;-78
2024/01/23 02:58:17;;;;;;;6.20;5.60;;;7.40;99.90;;;;;;5051618;28;20478;-78
2024/01/23 03:00:46;;;;;;;6.10;5.70;;;7.40;99.90;;;;;;5045659;28;20575;-75
2024/01/23 03:03:14;;;;;;;6.70;5.50;;;7.50;99.90;;;;;;5049013;28;20483;-79
2024/01/23 03:05:42;;;;;;;6.30;5.70;;;7.40;99.90;;;;;;5048796;28;20486;-77
2024/01/23 03:08:11;;;;;;;9.30;5.47;;;7.50;99.90;;;;;;5054900;28;20465;-75
2024/01/23 03:10:39;;;;;;;9.40;5.90;;;7.40;99.90;;;;;;5052065;28;20534;-78
2024/01/23 03:13:07;;;;;;;6.20;5.57;;;7.40;99.90;;;;;;5047294;28;20458;-75
2024/01/23 03:15:36;;;;;;;5.40;5.00;;;7.40;99.90;;;;;;5049167;28;20575;-77
2024/01/23 03:18:05;;;;;;;6.63;5.80;;;7.40;99.90;;;;;;5049999;28;20589;-76
2024/01/23 03:20:33;;;;;;;7.13;5.40;;;7.40;99.90;;;;;;5057740;28;20457;-78
2024/01/23 03:23:02;;;;;;;8.70;5.17;;;7.40;99.90;;;;;;5052111;28;20492;-79
2024/01/23 03:25:30;;;;;;;7.80;6.03;;;7.40;99.90;;;;;;5054874;28;20460;-77
2024/01/23 03:27:58;;;;;;;6.37;5.83;;;7.40;99.90;;;;;;5071565;28;20488;-78
2024/01/23 03:30:30;;;;;;;5.97;5.47;;;7.40;99.90;;;;;;5047511;28;20465;-75
2024/01/23 03:33:00;;;;;;;5.63;5.20;;;7.40;99.90;;;;;;5062044;28;22371;-76
2024/01/23 03:35:28;;;;;;;6.80;6.20;;;7.50;99.90;;;;;;5053782;28;20452;-78
2024/01/23 03:37:56;;;;;;;6.33;5.20;;;7.40;99.90;;;;;;5054208;28;21080;-76
2024/01/23 03:40:24;;;;;;;7.20;5.97;;;7.40;99.90;;;;;;5055775;28;20870;-80
2024/01/23 03:42:53;;;;;;;6.47;5.87;;;7.40;99.90;;;;;;5053713;28;20464;-78
2024/01/23 03:45:21;;;;;;;5.77;5.27;;;7.40;96.80;;;;;;5046955;28;20514;-77
2024/01/23 03:47:49;;;;;;;11.70;5.93;;;7.40;99.90;;;;;;5043296;28;20493;-79
2024/01/23 03:50:19;;;;;;;6.23;5.63;;;7.40;95.70;;;;;;5055397;28;20851;-81
2024/01/23 03:52:47;;;;;;;6.10;5.60;;;7.40;99.90;;;;;;5056795;28;20460;-80
2024/01/23 03:55:16;;;;;;;5.80;5.03;;;7.50;98.20;;;;;;5054128;28;22341;-76
2024/01/23 03:57:44;;;;;;;7.23;6.20;;;7.50;99.90;;;;;;5052277;28;20456;-79
2024/01/23 04:00:14;;;;;;;6.63;6.10;;;7.50;99.90;;;;;;5050521;28;20459;-77
2024/01/23 04:02:42;;;;;;;7.70;5.67;;;7.50;99.90;;;;;;5050118;28;20870;-80
2024/01/23 04:05:11;;;;;;;6.97;5.20;;;7.50;99.90;;;;;;5051438;28;20448;-78
2024/01/23 04:07:41;;;;;;;6.70;5.90;;;7.50;99.90;;;;;;5060016;28;20481;-77
2024/01/23 04:10:10;;;;;;;10.03;5.30;;;7.50;99.90;;;;;;5055329;28;20960;-75
2024/01/23 04:12:38;;;;;;;10.00;6.50;;;7.50;99.90;;;;;;5053877;28;20537;-77
2024/01/23 04:15:07;;;;;;;5.83;5.33;;;7.40;99.90;;;;;;5050853;28;20525;-79
2024/01/23 04:17:35;;;;;;;8.33;6.20;;;7.40;99.90;;;;;;5055522;28;20958;-80
2024/01/23 04:20:04;;;;;;;5.90;5.50;;;7.40;99.90;;;;;;5049031;28;20461;-77
2024/01/23 04:22:33;;;;;;;8.03;5.57;;;7.40;99.90;;;;;;5050311;28;20484;-79
2024/01/23 04:25:04;;;;;;;6.07;5.60;;;7.40;99.90;;;;;;5052019;28;21515;-77
2024/01/23 04:27:32;;;;;;;6.60;5.47;;;7.40;99.90;;;;;;5053418;28;20475;-80
2024/01/23 04:30:01;;;;;;;5.97;5.27;;;7.40;99.90;;;;;;5055452;28;21190;-79
2024/01/23 04:32:29;;;;;;;5.90;5.40;;;7.40;99.90;;;;;;5054373;28;20454;-78
2024/01/23 04:34:57;;;;;;;6.30;5.83;;;7.40;99.90;;;;;;5051344;28;20471;-79
2024/01/23 04:37:26;;;;;;;6.00;5.60;;;7.40;99.90;;;;;;5054627;28;20448;-79
2024/01/23 04:39:54;;;;;;;8.40;6.10;;;7.40;99.90;;;;;;5054471;28;20480;-76
2024/01/23 04:42:23;;;;;;;7.10;6.40;;;7.40;1.00;;;;;;5056337;28;20452;-80
2024/01/23 04:44:52;;;;;;;6.90;6.00;;;7.40;1.00;;;;;;5048304;28;20492;-79
2024/01/23 04:47:20;;;;;;;7.03;6.60;;;7.40;1.00;;;;;;5052377;28;20472;-76
2024/01/23 04:49:48;;;;;;;10.93;5.80;;;7.40;1.00;;;;;;5054446;28;20521;-78
2024/01/23 04:52:17;;;;;;;7.53;6.40;;;7.30;99.90;;;;;;5054351;28;20463;-78
2024/01/23 04:54:45;;;;;;;7.77;6.00;;;7.30;99.90;;;;;;5048820;28;20463;-77
2024/01/23 04:57:14;;;;;;;5.77;5.47;;;7.40;1.00;;;;;;5053188;28;20440;-76
2024/01/23 04:59:43;;;;;;;5.90;5.60;;;7.30;1.00;;;;;;5046714;28;20478;-80
2024/01/23 05:02:11;;;;;;;6.27;5.77;;;7.30;1.00;;;;;;5039479;28;20447;-78
2024/01/23 05:04:40;;;;;;;5.87;5.37;;;7.30;1.00;;;;;;5050443;28;21042;-79
2024/01/23 05:07:08;;;;;;;5.77;5.33;;;7.30;99.90;;;;;;5056434;28;20479;-80
2024/01/23 05:09:36;;;;;;;5.43;5.10;;;7.30;99.90;;;;;;5053814;28;20483;-79
2024/01/23 05:12:05;;;;;;;5.90;5.60;;;7.30;99.90;;;;;;5054905;28;20447;-80
2024/01/23 05:14:34;;;;;;;6.40;5.80;;;7.30;99.90;;;;;;5051911;28;20500;-78
2024/01/23 05:17:03;;;;;;;5.90;5.50;;;7.30;99.90;;;;;;5054394;28;20670;-80
2024/01/23 05:19:32;;;;;;;5.50;4.93;;;7.30;99.90;;;;;;5048102;28;20472;-79
2024/01/23 05:22:00;;;;;;;6.30;5.90;;;7.30;99.90;;;;;;5046848;28;20459;-80
2024/01/23 05:24:28;;;;;;;5.73;5.30;;;7.20;99.90;;;;;;5049088;28;20452;-81
2024/01/23 05:26:57;;;;;;;5.17;4.97;;;7.20;1.00;;;;;;5050301;28;20474;-79
2024/01/23 05:29:25;;;;;;;10.33;7.37;;;7.20;99.90;;;;;;5052403;28;20534;-80
2024/01/23 05:31:53;;;;;;;6.03;5.53;;;7.20;1.00;;;;;;5051140;28;20973;-80
2024/01/23 05:34:23;;;;;;;5.70;5.40;;;7.20;1.00;;;;;;5058497;28;20825;-79
2024/01/23 05:36:52;;;;;;;4.93;4.77;;;7.20;1.00;;;;;;5055870;28;20980;-79
2024/01/23 05:39:21;;;;;;;5.87;5.57;;;7.20;1.00;;;;;;5049875;28;20839;-80
2024/01/23 05:41:49;;;;;;;5.73;5.23;;;7.20;1.00;;;;;;5055509;28;20563;-79
2024/01/23 05:44:17;;;;;;;6.10;5.60;;;7.10;1.00;;;;;;5053541;28;20452;-79
2024/01/23 05:46:45;;;;;;;5.60;5.10;;;7.10;1.00;;;;;;5051842;28;20502;-78
2024/01/23 05:49:15;;;;;;;4.53;4.43;;;7.00;99.90;;;;;;5051444;28;20463;-76
2024/01/23 05:51:45;;;;;;;5.07;4.77;;;7.00;1.00;;;;;;5047983;28;20459;-82
2024/01/23 05:54:13;;;;;;;4.80;4.60;;;6.90;99.90;;;;;;5055356;28;20459;-79
2024/01/23 05:56:41;;;;;;;4.87;4.77;;;6.90;99.90;;;;;;5053637;28;20455;-82
2024/01/23 05:59:10;;;;;;;8.20;7.53;;;6.90;99.90;;;;;;5057723;28;20555;-79
2024/01/23 06:01:38;;;;;;;4.67;4.57;;;6.80;99.90;;;;;;5052616;28;20459;-75
2024/01/23 06:04:08;;;;;;;4.77;4.57;;;6.80;99.90;;;;;;5055318;28;20466;-81
2024/01/23 06:06:40;;;;;;;4.30;4.20;;;6.80;99.90;;;;;;5051075;28;20443;-80
2024/01/23 06:09:10;;;;;;;4.23;4.13;;;6.70;1.00;;;;;;5047022;28;20563;-81
2024/01/23 06:11:40;;;;;;;4.33;4.20;;;6.70;99.90;;;;;;5044245;28;20466;-83
2024/01/23 06:14:09;;;;;;;4.07;3.87;;;6.80;99.90;;;;;;5049578;28;20546;-77
2024/01/23 06:16:38;;;;;;;4.13;4.03;;;6.70;99.90;;;;;;5048159;28;20460;-76
2024/01/23 06:19:08;;;;;;;4.00;3.90;;;6.70;99.90;;;;;;5045575;28;20480;-79
2024/01/23 06:21:37;;;;;;;4.53;4.43;;;6.70;1.00;;;;;;5047012;28;21289;-77
2024/01/23 06:24:06;;;;;;;5.23;5.03;;;6.60;99.90;;;;;;5054599;28;20511;-80
2024/01/23 06:26:36;;;;;;;4.10;4.00;;;6.60;1.00;;;;;;5053268;28;20838;-80
2024/01/23 06:29:04;;;;;;;3.80;3.60;;;6.60;99.90;;;;;;5051671;28;20484;-78
2024/01/23 06:31:32;;;;;;;3.87;3.77;;;6.60;1.00;;;;;;5056020;28;20451;-79
2024/01/23 06:34:02;;;;;;;3.83;3.73;;;6.70;99.90;;;;;;5054973;28;20480;-79
2024/01/23 06:36:31;;;;;;;3.83;3.73;;;6.70;99.90;;;;;;5057085;28;20451;-81
2024/01/23 06:38:59;;;;;;;4.00;3.90;;;6.60;99.90;;;;;;5056383;28;20471;-79
2024/01/23 06:41:27;;;;;;;3.90;3.80;;;6.60;99.90;;;;;;5056145;28;20452;-78
2024/01/23 06:43:57;;;;;;;4.10;4.00;;;6.50;99.90;;;;;;5053622;28;20842;-76
2024/01/23 06:46:25;;;;;;;4.70;4.50;;;6.60;1.00;;;;;;5047039;28;20527;-76
2024/01/23 06:48:52;;;;;;;4.33;4.20;;;6.60;99.90;;;;;;5055487;28;20483;-77
2024/01/23 06:51:22;;;;;;;5.03;4.70;;;6.50;99.90;;;;;;5054050;28;20471;-76
2024/01/23 06:53:50;;;;;;;4.20;4.00;;;6.50;99.90;;;;;;5052493;28;20521;-77
2024/01/23 06:56:18;;;;;;;4.33;4.23;;;6.50;1.00;;;;;;5058265;28;20471;-76
2024/01/23 06:58:47;;;;;;;4.00;3.90;;;6.40;99.90;;;;;;5051308;28;20587;-78
2024/01/23 07:01:16;;;;;;;4.30;4.07;;;6.40;1.00;;;;;;5055416;28;21099;-77
2024/01/23 07:03:45;;;;;;;4.40;4.30;;;6.40;1.00;;;;;;5057099;28;20452;-76
2024/01/23 07:06:13;;;;;;;4.50;4.30;;;6.40;1.00;;;;;;5055212;28;20449;-76
2024/01/23 07:08:41;;;;;;;4.30;4.20;;;6.40;1.00;;;;;;5054218;28;20948;-75
2024/01/23 07:11:09;;;;;;;4.13;4.03;;;6.40;1.00;;;;;;5055157;28;20455;-79
2024/01/23 07:13:37;;;;;;;4.50;4.40;;;6.40;1.00;;;;;;5054084;28;21170;-78
2024/01/23 07:16:06;;;;;;;4.87;4.50;;;6.30;79.70;;;;;;5052654;28;20472;-77
2024/01/23 07:18:36;;;;;;;4.40;4.30;;;6.40;99.90;;;;;;5051558;28;20571;-79
2024/01/23 07:21:04;;;;;;;4.50;4.40;;;6.30;99.90;;;;;;5043309;28;20445;-80
2024/01/23 07:23:34;;;;;;;4.40;4.20;;;6.30;99.90;;;;;;5055198;28;20460;-76
2024/01/23 07:26:03;;;;;;;4.70;4.40;;;6.30;99.90;;;;;;5052055;28;20546;-78
2024/01/23 07:28:31;;;;;;;4.50;4.30;;;6.40;99.90;;;;;;5049590;28;20486;-75
2024/01/23 07:31:19;;;;;;;4.40;4.30;;;6.40;1.00;;;;;;5052561;28;20455;-78
2024/01/23 07:33:49;;;;;;;4.47;4.30;;;6.30;1.00;;;;;;5053236;28;20448;-73
2024/01/23 07:36:18;;;;;;;4.27;4.13;;;6.30;18.80;;;;;;5048955;28;20460;-76
2024/01/23 07:38:46;;;;;;;4.40;4.20;;;6.40;65.30;;;;;;5054611;28;20474;-74
2024/01/23 07:41:14;;;;;;;4.53;4.33;;;6.50;5.20;;;;;;5041710;28;20474;-77
2024/01/23 07:43:42;;;;;;;4.50;4.30;;;6.50;1.00;;;;;;5048913;28;20460;-75
2024/01/23 07:46:10;;;;;;;4.70;4.50;;;6.50;1.00;;;;;;5050998;28;21039;-76
2024/01/23 07:48:39;;;;;;;4.50;4.30;;;6.50;1.00;;;;;;5043020;28;20570;-74
2024/01/23 07:51:09;;;;;;;4.30;4.10;;;6.50;45.60;;;;;;5050588;28;20473;-75
2024/01/23 07:53:37;;;;;;;4.13;4.00;;;6.40;1.00;;;;;;5051965;28;20456;-76
2024/01/23 07:56:06;;;;;;;4.20;4.00;;;6.40;99.90;;;;;;5044123;28;20452;-73
2024/01/23 07:58:34;;;;;;;4.33;4.23;;;6.30;99.90;;;;;;5050491;28;20474;-74
2024/01/23 08:01:03;;;;;;;4.27;4.07;;;6.40;1.00;;;;;;5040274;28;20460;-76
2024/01/23 08:03:31;;;;;;;7.30;6.90;;;6.50;99.90;;;;;;5038342;28;20464;-73
2024/01/23 08:06:00;;;;;;;4.87;4.67;;;6.40;99.90;;;;;;5040911;28;20443;-74
2024/01/23 08:08:29;;;;;;;4.90;4.60;;;6.40;99.90;;;;;;5042194;28;20563;-76
2024/01/23 08:10:57;;;;;;;5.37;5.17;;;6.50;1.00;;;;;;5046565;28;20544;-80
2024/01/23 08:13:26;;;;;;;5.20;4.80;;;6.50;99.90;;;;;;5031059;28;20468;-76
2024/01/23 08:15:54;;;;;;;4.90;4.70;;;6.50;99.90;;;;;;5047971;28;20464;-77
2024/01/23 08:18:23;;;;;;;5.77;5.23;;;6.60;99.90;;;;;;5036279;28;20473;-75
2024/01/23 08:20:51;;;;;;;5.10;4.90;;;6.70;99.90;;;;;;5039205;28;21242;-75
2024/01/23 08:23:19;;;;;;;6.00;5.80;;;6.80;99.90;;;;;;5055235;28;20512;-76
2024/01/23 08:25:49;;;;;;;5.57;5.27;;;6.80;22.70;;;;;;5055379;28;20748;-73
2024/01/23 08:28:17;;;;;;;5.07;4.87;;;6.80;70.10;;;;;;5043917;28;20489;-77
2024/01/23 08:30:45;;;;;;;5.60;5.30;;;6.80;1.00;;;;;;5053498;28;20578;-74
2024/01/23 08:33:17;;;;;;;5.37;5.17;;;6.80;1.00;;;;;;5056945;28;20456;-77
2024/01/23 08:35:46;;;;;;;5.90;5.50;;;6.80;1.00;;;;;;5056380;28;20580;-74
2024/01/23 08:38:15;;;;;;;5.57;5.27;;;6.80;14.50;;;;;;5054971;28;20468;-77
2024/01/23 08:40:45;;;;;;;5.67;5.37;;;6.90;1.00;;;;;;5055791;28;20458;-75
2024/01/23 08:43:15;;;;;;;6.00;4.90;;;6.80;1.00;;;;;;5049940;28;20454;-74
2024/01/23 08:45:43;;;;;;;6.03;5.63;;;6.90;99.90;;;;;;5045855;28;21053;-77
2024/01/23 08:48:11;;;;;;;5.40;5.10;;;6.90;99.90;;;;;;5055921;28;20553;-77
2024/01/23 08:50:41;;;;;;;5.40;5.20;;;6.90;99.90;;;;;;5055736;28;20478;-77
2024/01/23 08:53:09;;;;;;;6.57;6.07;;;6.90;35.40;;;;;;5051683;28;20459;-76
2024/01/23 08:55:38;;;;;;;5.63;5.30;;;7.00;99.90;;;;;;5053873;28;20459;-79
2024/01/23 08:58:06;;;;;;;6.30;6.00;;;7.00;1.00;;;;;;5055651;28;20494;-74
2024/01/23 09:00:35;;;;;;;6.37;6.00;;;6.90;31.20;;;;;;5057824;28;20493;-74
2024/01/23 09:03:05;;;;;;;5.80;5.50;;;6.90;5.70;;;;;;5057690;28;20485;-75
2024/01/23 09:05:34;;;;;;;5.80;5.50;;;6.90;1.30;;;;;;5055457;28;20439;-76
2024/01/23 09:08:11;;;;;;;6.37;6.10;;;7.00;72.10;;;;;;5056572;28;20467;-75
2024/01/23 09:10:39;;;;;;;5.83;5.43;;;7.00;99.90;;;;;;5056173;28;20882;-78
2024/01/23 09:13:08;;;;;;;6.23;5.60;;;7.00;99.90;;;;;;5050171;28;20877;-77
2024/01/23 09:15:38;;;;;;;6.73;6.33;;;7.00;99.90;;;;;;5057972;28;20965;-78
2024/01/23 09:18:06;;;;;;;5.90;5.57;;;7.10;99.90;;;;;;5057187;28;20474;-78
2024/01/23 09:20:35;;;;;;;5.43;5.23;;;7.10;71.40;;;;;;5054513;28;20444;-76
2024/01/23 09:23:03;;;;;;;6.40;6.00;;;7.10;1.00;;;;;;5058291;28;20494;-75
2024/01/23 09:25:31;;;;;;;6.43;6.13;;;7.20;1.00;;;;;;5052259;28;20448;-80
2024/01/23 09:28:00;;;;;;;5.73;5.50;;;7.20;1.00;;;;;;5057959;28;20582;-77
2024/01/23 09:30:29;;;;;;;5.67;5.40;;;7.20;1.00;;;;;;5057100;28;21022;-75
2024/01/23 09:33:00;;;;;;;5.40;5.20;;;7.20;1.00;;;;;;5056913;28;20502;-75
2024/01/23 09:35:28;;;;;;;5.53;5.33;;;7.20;1.00;;;;;;5055608;28;20458;-77
2024/01/23 09:37:56;;;;;;;5.87;5.37;;;7.20;1.00;;;;;;5055869;28;20507;-79
2024/01/23 09:40:25;;;;;;;6.10;5.80;;;7.30;1.00;;;;;;5056415;28;20502;-74
2024/01/23 09:42:56;;;;;;;5.30;5.20;;;7.30;1.00;;;;;;5055985;28;20447;-75
2024/01/23 09:45:27;;;;;;;5.67;5.40;;;7.30;1.00;;;;;;5053176;28;20455;-77
2024/01/23 09:47:58;;;;;;;6.23;5.87;;;7.30;1.00;;;;;;5054278;28;20471;-76
2024/01/23 09:50:28;;;;;;;6.23;5.70;;;7.30;1.00;;;;;;5049812;28;20503;-77
2024/01/23 09:52:59;;;;;;;6.80;6.00;;;7.30;97.60;;;;;;5054841;28;20512;-79
2024/01/23 09:55:28;;;;;;;6.40;6.00;;;7.30;99.90;;;;;;5053479;28;20606;-77
2024/01/23 09:57:56;;;;;;;6.90;6.27;;;7.30;99.90;;;;;;5056187;28;20501;-81
2024/01/23 10:00:25;;;;;;;6.33;6.00;;;7.30;99.90;;;;;;5045144;28;20467;-81
2024/01/23 10:02:54;;;;;;;6.10;5.60;;;7.40;99.90;;;;;;5056593;28;20447;-79
2024/01/23 10:05:25;;;;;;;5.80;5.50;;;7.50;1.00;;;;;;5058469;28;21033;-80
2024/01/23 10:07:54;;;;;;;7.57;6.13;;;7.50;6.30;;;;;;5053388;28;20473;-76
2024/01/23 10:10:24;;;;;;;7.20;6.40;;;7.40;1.00;;;;;;5044619;28;20520;-75
2024/01/23 10:12:53;;;;;;;6.40;5.80;;;7.50;1.00;;;;;;5051494;28;20499;-80
2024/01/23 10:15:22;;;;;;;6.90;6.40;;;7.70;1.00;;;;;;5050228;28;20470;-79
2024/01/23 10:17:53;;;;;;;5.90;5.50;;;7.70;56.00;;;;;;5052931;28;20547;-78
2024/01/23 10:20:22;;;;;;;8.50;6.00;;;7.70;99.90;;;;;;5054593;28;20459;-78
2024/01/23 10:22:53;;;;;;;6.07;5.57;;;7.70;1.00;;;;;;5056281;28;20452;-78
2024/01/23 10:25:22;;;;;;;6.17;5.67;;;7.80;1.00;;;;;;5053216;28;20451;-78
2024/01/23 10:27:54;;;;;;;6.13;5.73;;;7.80;99.90;;;;;;5053826;28;21023;-78
2024/01/23 10:30:22;;;;;;;5.40;5.20;;;8.00;1.00;;;;;;5054456;28;20511;-75
2024/01/23 10:32:52;;;;;;;5.20;4.90;;;8.30;99.90;;;;;;5052606;28;20468;-77
2024/01/23 10:35:21;;;;;;;5.77;5.47;;;9.00;99.90;;;;;;5051613;28;20456;-77
2024/01/23 10:37:52;;;;;;;4.97;4.67;;;11.20;1.00;;;;;;5057132;28;20460;-76
2024/01/23 10:40:23;;;;;;;5.70;4.70;;;13.30;99.90;;;;;;5054482;28;20548;-76
2024/01/23 10:42:52;;;;;;;4.07;3.77;;;14.90;99.90;;;;;;5055462;28;20492;-79
2024/01/23 10:45:21;;;;;;;3.90;3.60;;;16.00;99.90;;;;;;5053287;28;20459;-78
2024/01/23 10:47:51;;;;;;;3.13;3.00;;;16.80;99.90;;;;;;5052745;28;20546;-77
2024/01/23 10:50:21;;;;;;;3.13;2.93;;;17.50;99.90;;;;;;5052677;28;20463;-77
2024/01/23 10:52:50;;;;;;;4.30;3.30;;;18.10;99.90;;;;;;5045809;28;20544;-78
2024/01/23 10:55:23;;;;;;;3.90;2.93;;;18.40;99.90;;;;;;5053752;28;20452;-77
2024/01/23 10:57:54;;;;;;;3.47;3.17;;;18.60;99.90;;;;;;5055286;28;20440;-74
2024/01/23 11:00:23;;;;;;;3.87;2.90;;;17.90;99.90;;;;;;5052433;28;20451;-79
2024/01/23 11:02:54;;;;;;;3.50;3.20;;;17.90;99.90;;;;;;5047846;28;20466;-78
2024/01/23 11:05:28;;;;;;;3.33;2.93;;;18.10;99.90;;;;;;5055111;28;20461;-81
2024/01/23 11:07:59;;;;;;;2.93;2.67;;;17.90;99.90;;;;;;5051709;28;20540;-77
2024/01/23 11:10:36;;;;;;;4.27;2.67;;;16.70;99.90;;;;;;5052245;28;20475;-79
2024/01/23 11:13:14;;;;;;;4.13;2.70;;;15.10;99.90;;;;;;5053237;28;20719;-77
2024/01/23 11:15:43;;;;;;;5.10;3.20;;;14.30;99.90;;;;;;5053190;28;20448;-78
2024/01/23 11:18:25;;;;;;;5.03;2.87;;;13.70;99.90;;;;;;5051208;28;20492;-81
2024/01/23 11:21:17;;;;;;;4.77;4.37;;;13.60;99.90;;;;;;5053357;28;21030;-79
2024/01/23 11:23:46;;;;;;;4.80;3.67;;;13.80;99.90;;;;;;5039154;28;20472;-79
2024/01/23 11:26:19;;;;;;;3.40;3.13;;;13.90;99.90;;;;;;5036856;28;20476;-78
2024/01/23 11:28:50;;;;;;;3.13;2.93;;;13.60;99.90;;;;;;5039909;28;20468;-80
2024/01/23 11:31:20;;;;;;;4.30;3.30;;;13.70;99.90;;;;;;5039624;28;21076;-78
2024/01/23 11:33:51;;;;;;;3.00;2.70;;;14.40;99.90;;;;;;5042271;28;20487;-79
2024/01/23 11:36:24;;;;;;;2.73;2.53;;;15.00;99.90;;;;;;5050883;28;20449;-77
2024/01/23 11:38:57;;;;;;;7.30;2.77;;;15.70;99.90;;;;;;5039396;28;20878;-77
2024/01/23 11:41:28;;;;;;;5.27;3.30;;;15.20;99.90;;;;;;5041640;28;20453;-80
2024/01/23 11:44:04;;;;;;;4.83;2.60;;;14.30;99.90;;;;;;5046549;28;20535;-79
2024/01/23 11:46:36;;;;;;;5.53;3.13;;;13.70;99.90;;;;;;5036852;28;20459;-78
2024/01/23 11:49:04;;;;;;;7.90;3.80;;;13.30;99.90;;;;;;5042851;28;20502;-77
2024/01/23 11:51:36;;;;;;;4.27;3.20;;;12.90;99.90;;;;;;5048302;28;20478;-78
2024/01/23 11:54:09;;;;;;;6.43;3.40;;;12.70;99.90;;;;;;5041861;28;20444;-80
2024/01/23 11:56:40;;;;;;;4.87;3.20;;;12.40;99.90;;;;;;5044263;28;20455;-78
2024/01/23 11:59:09;;;;;;;6.03;3.47;;;12.30;99.90;;;;;;5048628;28;20470;-80
2024/01/23 12:01:42;;;;;;;3.83;3.10;;;12.20;99.90;;;;;;5039963;28;20543;-81
2024/01/23 12:04:11;;;;;;;5.20;3.10;;;12.20;99.90;;;;;;5048004;28;20443;-80
2024/01/23 12:06:40;;;;;;;2.80;2.60;;;12.20;99.90;;;;;;5036058;28;20460;-79
2024/01/23 12:09:09;;;;;;;4.60;2.60;;;12.10;99.90;;;;;;5048985;28;20835;-80
2024/01/23 12:11:39;;;;;;;3.20;2.90;;;12.10;99.90;;;;;;5045120;28;20493;-79
2024/01/23 12:14:07;;;;;;;6.13;2.77;;;12.10;99.90;;;;;;5048831;28;21122;-80
2024/01/23 12:16:38;;;;;;;2.90;2.70;;;11.90;99.90;;;;;;5052328;28;20549;-81
2024/01/23 12:19:06;;;;;;;4.80;3.17;;;11.70;99.90;;;;;;5042998;28;21111;-79
2024/01/23 12:21:35;;;;;;;6.50;2.87;;;11.60;99.90;;;;;;5050744;28;20459;-77
2024/01/23 12:24:03;;;;;;;4.27;2.57;;;11.50;99.90;;;;;;5053942;28;20459;-78
2024/01/23 12:26:46;;;;;;;3.10;2.60;;;11.40;99.90;;;;;;5053548;28;20455;-80
2024/01/23 12:29:15;;;;;;;3.23;2.70;;;11.30;99.90;;;;;;5049575;28;20544;-78
2024/01/23 12:31:45;;;;;;;6.93;3.10;;;11.10;99.90;;;;;;5050677;28;20479;-81
2024/01/23 12:34:13;;;;;;;6.70;3.80;;;11.00;99.90;;;;;;5052987;28;20460;-76
2024/01/23 12:36:42;;;;;;;3.77;2.63;;;10.70;99.90;;;;;;5049247;28;20470;-76
2024/01/23 12:39:11;;;;;;;7.23;2.83;;;10.70;99.90;;;;;;5051235;28;20470;-79
2024/01/23 12:41:39;;;;;;;3.30;2.73;;;10.60;99.90;;;;;;5058712;28;20731;-78
2024/01/23 12:44:10;;;;;;;7.93;2.60;;;10.50;99.90;;;;;;5054243;28;20448;-77
2024/01/23 12:46:38;;;;;;;4.07;2.37;;;10.40;99.90;;;;;;5054569;28;20460;-79
2024/01/23 12:49:08;;;;;;;5.17;2.60;;;10.40;99.90;;;;;;5052312;28;20848;-75
2024/01/23 12:51:36;;;;;;;5.47;2.60;;;10.20;99.90;;;;;;5049094;28;20488;-78
2024/01/23 12:54:07;;;;;;;3.30;3.10;;;10.10;99.90;;;;;;5041728;28;20838;-77
2024/01/23 12:56:35;;;;;;;4.33;3.10;;;10.10;99.90;;;;;;5045590;28;20467;-77
2024/01/23 12:59:04;;;;;;;4.27;2.40;;;10.20;99.90;;;;;;5044712;28;20559;-79
2024/01/23 13:01:37;;;;;;;3.00;2.33;;;10.10;99.90;;;;;;5047059;28;20452;-79
2024/01/23 13:04:06;;;;;;;9.90;3.30;;;10.10;99.90;;;;;;5050151;28;20457;-76
2024/01/23 13:06:35;;;;;;;5.77;3.10;;;10.00;99.90;;;;;;5051366;28;20530;-76
2024/01/23 13:09:08;;;;;;;6.50;2.90;;;10.00;99.90;;;;;;5052390;28;20486;-80